Time;durP1;ratioP1;P1;durP2;ratioP2;P2;SDS_P1;SDS_P2;PMS_P1;PMS_P2;Temp;Humidity;BMP_temperature;BMP_pressure;BME280_temperature;BME280_humidity;BME280_pressure;Samples;Min_cycle;Max_cycle;Signal;HPM_P1;HPM_P2
2023/04/14 00:01:20;;;;;;;;;;;16.60;48.40;;;;;;5076969;28;19928;-67
2023/04/14 00:03:45;;;;;;;;;;;16.60;48.40;;;;;;5094827;28;19920;-66
2023/04/14 00:06:11;;;;;;;;;;;16.60;48.40;;;;;;5077109;28;19920;-67
2023/04/14 00:08:36;;;;;;;;;;;16.50;48.40;;;;;;5076510;28;20447;-74
2023/04/14 00:11:02;;;;;;;;;;;16.50;48.40;;;;;;5092934;28;19920;-67
2023/04/14 00:13:27;;;;;;;;;;;16.50;48.40;;;;;;5076696;28;19927;-66
2023/04/14 00:15:54;;;;;;;;;;;16.50;48.40;;;;;;5093940;28;20372;-67
2023/04/14 00:18:19;;;;;;;;;;;16.50;48.40;;;;;;5075964;28;20015;-67
2023/04/14 00:20:45;;;;;;;;;;;16.50;48.40;;;;;;5094422;28;20355;-67
2023/04/14 00:23:11;;;;;;;;;;;16.50;48.40;;;;;;5076318;28;19924;-67
2023/04/14 00:25:36;;;;;;;;;;;16.50;48.40;;;;;;5075774;28;19920;-67
2023/04/14 00:28:02;;;;;;;;;;;16.50;48.40;;;;;;5092869;28;20011;-66
2023/04/14 00:30:28;;;;;;;;;;;16.40;48.40;;;;;;5076139;28;19920;-66
2023/04/14 00:32:53;;;;;;;;;;;16.40;48.50;;;;;;5076085;28;19943;-66
2023/04/14 00:35:19;;;;;;;;;;;16.40;48.50;;;;;;5094197;28;19968;-67
2023/04/14 00:37:45;;;;;;;;;;;16.40;48.60;;;;;;5094104;28;19973;-67
2023/04/14 00:40:10;;;;;;;;;;;16.40;48.60;;;;;;5075172;28;19920;-67
2023/04/14 00:42:43;;;;;;;;;;;16.30;48.60;;;;;;5093031;28;19920;-67
2023/04/14 00:45:09;;;;;;;;;;;16.30;48.60;;;;;;5093946;28;19924;-66
2023/04/14 00:47:35;;;;;;;;;;;16.30;48.70;;;;;;5093264;28;19927;-67
2023/04/14 00:50:02;;;;;;;;;;;16.30;48.70;;;;;;5075880;28;19920;-74
2023/04/14 00:52:29;;;;;;;;;;;16.30;48.70;;;;;;5093835;28;20054;-74
2023/04/14 00:54:54;;;;;;;;;;;16.30;48.80;;;;;;5075480;28;19928;-67
2023/04/14 00:57:20;;;;;;;;;;;16.20;48.70;;;;;;5075365;28;20306;-67
2023/04/14 00:59:45;;;;;;;;;;;16.20;48.80;;;;;;5075409;28;19927;-67
2023/04/14 01:02:11;;;;;;;;;;;16.20;48.80;;;;;;5075806;28;19920;-66
2023/04/14 01:04:37;;;;;;;;;;;16.20;48.80;;;;;;5093644;28;19920;-74
2023/04/14 01:07:03;;;;;;;;;;;16.20;48.80;;;;;;5075268;28;19982;-67
2023/04/14 01:09:28;;;;;;;;;;;16.40;48.60;;;;;;5075636;28;19924;-66
2023/04/14 01:12:14;;;;;;;;;;;16.60;48.20;;;;;;5092947;28;19924;-74
2023/04/14 01:14:42;;;;;;;;;;;17.00;47.60;;;;;;5075473;28;20252;-66
2023/04/14 01:17:12;;;;;;;;;;;17.40;46.60;;;;;;5075228;28;19927;-67
2023/04/14 01:19:57;;;;;;;;;;;18.00;45.60;;;;;;5051974;28;20334;-67
2023/04/14 01:22:25;;;;;;;;;;;18.60;44.50;;;;;;5051901;28;19924;-66
2023/04/14 01:25:05;;;;;;;;;;;19.40;43.00;;;;;;5052555;28;20011;-66
2023/04/14 01:27:38;;;;;;;;;;;20.10;41.60;;;;;;5051525;28;19928;-67
2023/04/14 01:30:23;;;;;;;;;;;20.90;40.10;;;;;;5051772;28;19921;-67
2023/04/14 01:32:50;;;;;;;;;;;21.50;38.90;;;;;;5052644;28;19932;-66
2023/04/14 01:35:22;;;;;;;;;;;22.10;37.90;;;;;;5051831;28;19925;-66
2023/04/14 01:37:49;;;;;;;;;;;22.60;37.10;;;;;;5052722;28;20396;-66
2023/04/14 01:40:16;;;;;;;;;;;23.00;36.40;;;;;;5052166;28;19921;-67
2023/04/14 01:42:43;;;;;;;;;;;23.30;35.90;;;;;;5052628;28;19921;-66
2023/04/14 01:45:10;;;;;;;;;;;23.60;35.40;;;;;;5051809;28;20327;-66
2023/04/14 01:47:36;;;;;;;;;;;23.80;35.00;;;;;;5051554;28;20008;-66
2023/04/14 01:50:02;;;;;;;;;;;24.00;34.80;;;;;;5050978;28;20489;-66
2023/04/14 01:52:29;;;;;;;;;;;24.10;34.60;;;;;;5052880;28;19921;-66
2023/04/14 01:54:55;;;;;;;;;;;24.20;34.40;;;;;;5052081;28;20299;-66
2023/04/14 01:57:22;;;;;;;;;;;24.30;34.20;;;;;;5051040;28;19927;-66
2023/04/14 01:59:48;;;;;;;;;;;24.50;34.10;;;;;;5051222;28;19951;-66
2023/04/14 02:02:14;;;;;;;;;;;24.50;33.90;;;;;;5051374;28;19921;-67
2023/04/14 02:04:41;;;;;;;;;;;24.60;33.80;;;;;;5051242;28;20007;-66
2023/04/14 02:07:08;;;;;;;;;;;24.70;33.80;;;;;;5051346;28;19967;-66
2023/04/14 02:09:34;;;;;;;;;;;24.70;33.60;;;;;;5052389;28;20376;-67
2023/04/14 02:12:00;;;;;;;;;;;24.80;33.50;;;;;;5051523;28;20342;-67
2023/04/14 02:14:26;;;;;;;;;;;24.80;33.40;;;;;;5051077;28;19921;-66
2023/04/14 02:16:52;;;;;;;;;;;24.90;33.30;;;;;;5051353;28;19921;-67
2023/04/14 02:19:18;;;;;;;;;;;24.90;33.40;;;;;;5087983;28;20007;-66
2023/04/14 02:21:45;;;;;;;;;;;24.90;33.20;;;;;;5074425;28;19920;-67
2023/04/14 02:24:10;;;;;;;;;;;24.90;33.20;;;;;;5092475;28;19955;-66
2023/04/14 02:26:39;;;;;;;;;;;24.90;33.20;;;;;;5073698;28;19970;-67
2023/04/14 02:29:08;;;;;;;;;;;25.00;33.10;;;;;;5073649;28;20015;-66
2023/04/14 02:31:38;;;;;;;;;;;25.00;33.10;;;;;;5092219;28;19920;-66
2023/04/14 02:34:05;;;;;;;;;;;25.00;33.20;;;;;;5074484;28;20446;-67
2023/04/14 02:36:33;;;;;;;;;;;25.00;33.20;;;;;;5074068;28;20454;-66
2023/04/14 02:39:01;;;;;;;;;;;24.90;33.20;;;;;;5074059;28;20396;-66
2023/04/14 02:41:28;;;;;;;;;;;25.00;33.10;;;;;;5091648;28;19919;-66
2023/04/14 02:44:13;;;;;;;;;;;25.00;33.10;;;;;;5092065;28;19927;-66
2023/04/14 02:46:41;;;;;;;;;;;24.90;33.10;;;;;;5091993;28;19924;-67
2023/04/14 02:49:08;;;;;;;;;;;24.90;33.20;;;;;;5074024;28;20383;-66
2023/04/14 02:51:35;;;;;;;;;;;24.90;33.20;;;;;;5074362;28;19920;-67
2023/04/14 02:54:02;;;;;;;;;;;24.90;33.30;;;;;;5074027;28;19920;-66
2023/04/14 02:56:27;;;;;;;;;;;24.90;33.20;;;;;;5084702;28;20391;-66
2023/04/14 02:58:53;;;;;;;;;;;24.90;33.30;;;;;;5092049;28;19967;-66
2023/04/14 03:01:19;;;;;;;;;;;24.80;33.30;;;;;;5094196;28;19924;-66
2023/04/14 03:03:44;;;;;;;;;;;24.80;33.20;;;;;;5094990;28;19920;-66
2023/04/14 03:06:10;;;;;;;;;;;24.80;33.30;;;;;;5128851;27;19920;-67
2023/04/14 03:08:36;;;;;;;;;;;24.70;33.30;;;;;;5128787;27;19927;-66
2023/04/14 03:11:02;;;;;;;;;;;24.70;33.50;;;;;;5086502;28;20003;-67
2023/04/14 03:13:29;;;;;;;;;;;24.70;33.50;;;;;;5095028;28;19920;-66
2023/04/14 03:15:56;;;;;;;;;;;24.60;33.50;;;;;;5077520;28;19920;-66
2023/04/14 03:18:21;;;;;;;;;;;24.60;33.50;;;;;;5077413;28;20065;-66
2023/04/14 03:20:49;;;;;;;;;;;24.60;33.50;;;;;;5077413;28;19920;-66
2023/04/14 03:23:17;;;;;;;;;;;24.50;33.50;;;;;;5095694;28;19920;-66
2023/04/14 03:25:43;;;;;;;;;;;24.50;33.60;;;;;;5077013;28;19920;-67
2023/04/14 03:28:12;;;;;;;;;;;24.40;33.70;;;;;;5077219;28;19931;-66
2023/04/14 03:30:39;;;;;;;;;;;24.30;33.80;;;;;;5077132;28;20006;-66
2023/04/14 03:33:07;;;;;;;;;;;24.20;34.00;;;;;;5077320;28;20430;-66
2023/04/14 03:35:33;;;;;;;;;;;24.10;34.10;;;;;;5095396;28;20343;-66
2023/04/14 03:37:59;;;;;;;;;;;24.00;34.30;;;;;;5077372;28;19967;-66
2023/04/14 03:40:29;;;;;;;;;;;24.00;34.30;;;;;;5093326;28;19928;-66
2023/04/14 03:42:57;;;;;;;;;;;24.00;34.30;;;;;;5095060;28;19921;-67
2023/04/14 03:45:23;;;;;;;;;;;24.10;34.30;;;;;;5095071;28;19920;-66
2023/04/14 03:47:48;;;;;;;;;;;24.10;34.30;;;;;;5077286;28;20028;-66
2023/04/14 03:50:15;;;;;;;;;;;24.10;34.10;;;;;;5077266;28;20379;-66
2023/04/14 03:52:41;;;;;;;;;;;24.20;33.90;;;;;;5077337;28;20296;-66
2023/04/14 03:55:07;;;;;;;;;;;24.30;33.90;;;;;;5094488;28;19932;-67
2023/04/14 03:57:33;;;;;;;;;;;24.30;33.80;;;;;;5076640;28;19920;-66
2023/04/14 04:00:00;;;;;;;;;;;24.40;33.90;;;;;;5076919;28;19932;-67
2023/04/14 04:02:27;;;;;;;;;;;24.50;33.70;;;;;;5076732;28;19927;-66
2023/04/14 04:04:54;;;;;;;;;;;24.50;33.50;;;;;;5076358;28;19920;-67
2023/04/14 04:07:20;;;;;;;;;;;24.50;33.50;;;;;;5076932;28;19920;-66
2023/04/14 04:09:46;;;;;;;;;;;24.50;33.50;;;;;;5076086;28;20287;-66
2023/04/14 04:12:12;;;;;;;;;;;24.60;33.50;;;;;;5076237;28;20015;-67
2023/04/14 04:14:39;;;;;;;;;;;24.60;33.30;;;;;;5075784;28;19969;-66
2023/04/14 04:17:05;;;;;;;;;;;24.60;33.30;;;;;;5076279;28;19927;-67
2023/04/14 04:19:32;;;;;;;;;;;24.50;33.40;;;;;;5076136;28;19924;-67
2023/04/14 04:21:58;;;;;;;;;;;24.50;33.40;;;;;;5094442;28;20018;-67
2023/04/14 04:24:26;;;;;;;;;;;24.50;33.50;;;;;;5094391;28;19946;-66
2023/04/14 04:26:53;;;;;;;;;;;24.50;33.50;;;;;;5093732;28;19959;-66
2023/04/14 04:29:19;;;;;;;;;;;24.50;33.50;;;;;;5076357;28;19920;-67
2023/04/14 04:31:45;;;;;;;;;;;24.50;33.40;;;;;;5094196;28;19927;-66
2023/04/14 04:34:12;;;;;;;;;;;24.50;33.40;;;;;;5094461;28;19920;-66
2023/04/14 04:36:39;;;;;;;;;;;24.50;33.40;;;;;;5094255;28;19981;-66
2023/04/14 04:39:04;;;;;;;;;;;24.50;33.40;;;;;;5076041;28;19963;-66
2023/04/14 04:41:30;;;;;;;;;;;24.60;33.40;;;;;;5093457;28;19963;-66
2023/04/14 04:43:55;;;;;;;;;;;24.50;33.30;;;;;;5109854;28;20219;-66
2023/04/14 04:49:04;;;;;;;;;;;24.50;33.40;;;;;;5110098;27;19918;-66
2023/04/14 04:51:30;;;;;;;;;;;24.50;33.30;;;;;;5109250;28;20282;-66
2023/04/14 04:53:55;;;;;;;;;;;24.50;33.30;;;;;;5109234;28;20018;-66
2023/04/14 04:56:21;;;;;;;;;;;24.50;33.30;;;;;;5108521;28;20394;-66
2023/04/14 04:58:47;;;;;;;;;;;24.50;33.30;;;;;;5108499;28;20169;-66
2023/04/14 05:01:13;;;;;;;;;;;24.50;33.40;;;;;;5109096;28;19942;-66
2023/04/14 05:03:39;;;;;;;;;;;24.50;33.40;;;;;;5108867;28;19920;-66
2023/04/14 05:06:04;;;;;;;;;;;24.40;33.40;;;;;;5109068;28;19927;-66
2023/04/14 05:08:30;;;;;;;;;;;24.30;33.40;;;;;;5109775;28;20276;-66
2023/04/14 05:10:55;;;;;;;;;;;24.40;33.40;;;;;;5107800;28;19939;-65
2023/04/14 05:13:21;;;;;;;;;;;24.30;33.30;;;;;;5108515;28;19920;-66
2023/04/14 05:15:47;;;;;;;;;;;24.30;33.40;;;;;;5109700;28;19962;-66
2023/04/14 05:18:12;;;;;;;;;;;24.20;33.40;;;;;;5107340;28;19920;-67
2023/04/14 05:20:38;;;;;;;;;;;24.20;33.40;;;;;;5108373;28;19988;-66
2023/04/14 05:23:03;;;;;;;;;;;24.20;33.50;;;;;;5109696;28;20350;-66
2023/04/14 05:25:29;;;;;;;;;;;24.20;33.50;;;;;;5107944;28;19927;-66
2023/04/14 05:27:54;;;;;;;;;;;24.20;33.50;;;;;;5109354;28;20345;-66
2023/04/14 05:30:20;;;;;;;;;;;24.20;33.50;;;;;;5108222;28;20014;-66
2023/04/14 05:32:45;;;;;;;;;;;24.20;33.50;;;;;;5108232;28;19931;-66
2023/04/14 05:35:11;;;;;;;;;;;24.10;33.50;;;;;;5108024;28;19930;-66
2023/04/14 05:37:36;;;;;;;;;;;24.20;33.50;;;;;;5105955;28;19982;-65
2023/04/14 05:40:02;;;;;;;;;;;24.20;33.40;;;;;;5104616;28;20928;-66
2023/04/14 05:42:28;;;;;;;;;;;24.10;32.90;;;;;;5107124;28;20050;-65
2023/04/14 05:44:53;;;;;;;;;;;23.80;32.80;;;;;;5105554;28;20010;-65
2023/04/14 05:47:19;;;;;;;;;;;23.50;33.00;;;;;;5102433;28;20387;-64
2023/04/14 05:49:44;;;;;;;;;;;23.10;33.10;;;;;;5105876;28;19923;-65
2023/04/14 05:52:10;;;;;;;;;;;22.60;33.40;;;;;;5105654;28;19920;-64
2023/04/14 05:54:35;;;;;;;;;;;22.30;34.20;;;;;;5108242;28;19932;-65
2023/04/14 05:57:01;;;;;;;;;;;21.90;34.20;;;;;;5102894;28;19937;-64
2023/04/14 05:59:26;;;;;;;;;;;21.60;34.70;;;;;;5097012;28;19920;-63
2023/04/14 06:01:52;;;;;;;;;;;21.50;35.20;;;;;;5091503;28;19920;-64
2023/04/14 06:04:17;;;;;;;;;;;21.50;35.40;;;;;;5087182;28;20524;-64
2023/04/14 06:06:43;;;;;;;;;;;21.50;35.40;;;;;;5090836;28;19924;-63
2023/04/14 06:09:08;;;;;;;;;;;21.70;35.40;;;;;;5091740;28;19959;-66
2023/04/14 06:11:34;;;;;;;;;;;21.90;35.30;;;;;;5089969;28;19969;-64
2023/04/14 06:14:01;;;;;;;;;;;22.10;35.20;;;;;;5091598;28;19931;-64
2023/04/14 06:16:27;;;;;;;;;;;22.30;35.00;;;;;;5092687;28;19920;-64
2023/04/14 06:18:52;;;;;;;;;;;22.50;34.70;;;;;;5091044;28;20382;-64
2023/04/14 06:21:17;;;;;;;;;;;22.80;34.50;;;;;;5084921;28;20378;-64
2023/04/14 06:23:43;;;;;;;;;;;22.90;34.20;;;;;;5088941;28;19931;-63
2023/04/14 06:26:08;;;;;;;;;;;23.00;34.00;;;;;;5091752;28;19999;-62
2023/04/14 06:28:34;;;;;;;;;;;23.10;34.00;;;;;;5089470;28;19931;-64
2023/04/14 06:31:00;;;;;;;;;;;23.10;34.00;;;;;;5089260;28;19984;-63
2023/04/14 06:33:26;;;;;;;;;;;23.10;34.10;;;;;;5092611;28;19928;-63
2023/04/14 06:35:51;;;;;;;;;;;23.10;34.20;;;;;;5087096;28;19924;-64
2023/04/14 06:38:17;;;;;;;;;;;23.10;34.20;;;;;;5076525;28;20383;-64
2023/04/14 06:40:42;;;;;;;;;;;23.00;34.40;;;;;;5078996;28;20279;-63
2023/04/14 06:43:09;;;;;;;;;;;23.00;34.50;;;;;;5081983;28;20447;-64
2023/04/14 06:45:35;;;;;;;;;;;22.90;34.80;;;;;;5079295;28;19928;-63
2023/04/14 06:48:01;;;;;;;;;;;22.80;35.20;;;;;;5079188;28;20808;-65
2023/04/14 06:50:26;;;;;;;;;;;22.60;35.30;;;;;;5081226;28;19928;-64
2023/04/14 06:52:52;;;;;;;;;;;22.60;35.60;;;;;;5111563;27;19932;-64
2023/04/14 06:55:17;;;;;;;;;;;22.40;35.80;;;;;;5085668;28;20329;-64
2023/04/14 06:57:43;;;;;;;;;;;22.30;36.00;;;;;;5071804;28;19932;-65
2023/04/14 07:00:09;;;;;;;;;;;22.30;36.10;;;;;;5074693;28;19939;-65
2023/04/14 07:02:35;;;;;;;;;;;22.30;36.20;;;;;;5104651;27;19920;-66
2023/04/14 07:05:00;;;;;;;;;;;22.30;36.40;;;;;;5077381;28;19931;-66
2023/04/14 07:07:26;;;;;;;;;;;22.40;36.40;;;;;;5075619;28;19932;-66
2023/04/14 07:09:51;;;;;;;;;;;22.50;36.20;;;;;;5075674;28;19971;-66
2023/04/14 07:12:17;;;;;;;;;;;22.50;36.20;;;;;;5078398;28;20285;-66
2023/04/14 07:14:49;;;;;;;;;;;22.50;36.30;;;;;;5072496;28;20458;-67
2023/04/14 07:17:15;;;;;;;;;;;22.50;36.30;;;;;;5074058;28;19975;-67
2023/04/14 07:19:41;;;;;;;;;;;22.60;36.20;;;;;;5073366;28;19971;-67
2023/04/14 07:22:07;;;;;;;;;;;22.70;36.10;;;;;;5073603;28;19928;-67
2023/04/14 07:24:33;;;;;;;;;;;22.70;36.10;;;;;;5075480;28;19928;-67
2023/04/14 07:26:58;;;;;;;;;;;22.70;36.10;;;;;;5077555;28;19934;-66
2023/04/14 07:29:26;;;;;;;;;;;22.70;36.10;;;;;;5078243;28;20389;-66
2023/04/14 07:31:51;;;;;;;;;;;22.60;36.10;;;;;;5072863;28;21289;-67
2023/04/14 07:34:18;;;;;;;;;;;22.60;36.20;;;;;;5074644;28;20401;-67
2023/04/14 07:36:43;;;;;;;;;;;22.30;36.20;;;;;;5059351;28;19935;-68
2023/04/14 07:39:09;;;;;;;;;;;22.10;36.60;;;;;;5063720;28;20269;-67
2023/04/14 07:41:34;;;;;;;;;;;21.90;36.90;;;;;;5064442;28;20311;-65
2023/04/14 07:44:00;;;;;;;;;;;21.80;37.30;;;;;;5068116;28;20315;-67
2023/04/14 07:46:26;;;;;;;;;;;21.70;37.40;;;;;;5103514;27;19928;-68
2023/04/14 07:48:52;;;;;;;;;;;21.70;37.50;;;;;;5067499;28;19939;-68
2023/04/14 07:51:18;;;;;;;;;;;21.60;37.60;;;;;;5070862;28;19924;-68
2023/04/14 07:53:43;;;;;;;;;;;21.60;37.70;;;;;;5078753;28;19925;-67
2023/04/14 07:56:09;;;;;;;;;;;21.60;37.70;;;;;;5077107;28;19924;-67
2023/04/14 07:58:35;;;;;;;;;;;21.60;37.80;;;;;;5069498;28;19928;-68
2023/04/14 08:01:01;;;;;;;;;;;21.60;37.90;;;;;;5069156;28;19927;-69
2023/04/14 08:03:26;;;;;;;;;;;21.50;37.90;;;;;;5070073;28;19974;-70
2023/04/14 08:05:52;;;;;;;;;;;21.40;38.20;;;;;;5073503;28;20268;-70
2023/04/14 08:08:18;;;;;;;;;;;21.40;38.40;;;;;;5102559;27;19970;-70
2023/04/14 08:10:43;;;;;;;;;;;21.30;38.50;;;;;;5073158;28;20328;-67
2023/04/14 08:13:09;;;;;;;;;;;21.20;38.80;;;;;;5068285;28;20445;-69
2023/04/14 08:15:34;;;;;;;;;;;21.10;39.70;;;;;;5102274;27;19924;-68
2023/04/14 08:18:00;;;;;;;;;;;21.00;39.20;;;;;;5071146;28;19998;-68
2023/04/14 08:20:26;;;;;;;;;;;20.80;39.30;;;;;;5068215;28;20573;-68
2023/04/14 08:22:51;;;;;;;;;;;20.70;39.50;;;;;;5101280;27;20175;-68
2023/04/14 08:25:17;;;;;;;;;;;20.70;39.70;;;;;;5065626;28;19931;-69
2023/04/14 08:27:43;;;;;;;;;;;20.60;39.80;;;;;;5069073;28;19931;-67
2023/04/14 08:30:09;;;;;;;;;;;20.50;40.00;;;;;;5068918;28;19932;-67
2023/04/14 08:32:34;;;;;;;;;;;20.50;40.30;;;;;;5069320;28;19924;-71
2023/04/14 08:35:00;;;;;;;;;;;20.40;40.60;;;;;;5100302;27;19921;-67
2023/04/14 08:37:26;;;;;;;;;;;20.40;40.80;;;;;;5071029;28;19935;-66
2023/04/14 08:39:51;;;;;;;;;;;20.40;40.90;;;;;;5103025;27;19924;-66
2023/04/14 08:42:18;;;;;;;;;;;20.30;41.00;;;;;;5070626;28;19978;-66
2023/04/14 08:44:45;;;;;;;;;;;20.40;41.80;;;;;;5070906;28;20383;-66
2023/04/14 08:47:10;;;;;;;;;;;20.40;41.10;;;;;;5071138;28;19928;-66
2023/04/14 08:49:43;;;;;;;;;;;20.30;41.00;;;;;;5104486;28;19981;-67
2023/04/14 08:52:10;;;;;;;;;;;20.30;41.10;;;;;;5071724;28;19932;-68
2023/04/14 08:54:36;;;;;;;;;;;20.30;41.10;;;;;;5076081;28;19928;-68
2023/04/14 08:57:03;;;;;;;;;;;20.30;41.10;;;;;;5070731;28;20203;-68
2023/04/14 08:59:29;;;;;;;;;;;20.30;41.20;;;;;;5071545;28;19935;-65
2023/04/14 09:01:55;;;;;;;;;;;20.30;41.20;;;;;;5075739;28;19925;-67
2023/04/14 09:04:22;;;;;;;;;;;20.30;41.20;;;;;;5070728;28;19931;-67
2023/04/14 09:06:47;;;;;;;;;;;20.30;41.20;;;;;;5068645;28;19924;-70
2023/04/14 09:09:14;;;;;;;;;;;20.40;41.10;;;;;;5071948;28;20650;-67
2023/04/14 09:11:39;;;;;;;;;;;20.40;41.10;;;;;;5069619;28;19928;-76
2023/04/14 09:14:05;;;;;;;;;;;20.40;41.10;;;;;;5071806;28;19982;-67
2023/04/14 09:16:31;;;;;;;;;;;20.30;41.10;;;;;;5068354;28;19928;-66
2023/04/14 09:18:57;;;;;;;;;;;20.30;41.20;;;;;;5068579;28;19924;-67
2023/04/14 09:21:23;;;;;;;;;;;20.30;41.30;;;;;;5062803;28;20338;-68
2023/04/14 09:23:49;;;;;;;;;;;20.20;41.30;;;;;;5066821;28;19932;-67
2023/04/14 09:26:15;;;;;;;;;;;20.20;41.40;;;;;;5068441;28;19963;-68
2023/04/14 09:28:40;;;;;;;;;;;20.20;41.60;;;;;;5067915;28;19929;-64
2023/04/14 09:31:07;;;;;;;;;;;20.20;41.70;;;;;;5065252;28;19928;-68
2023/04/14 09:33:37;;;;;;;;;;;20.10;41.90;;;;;;5065024;28;19928;-72
2023/04/14 09:36:02;;;;;;;;;;;20.10;42.10;;;;;;5070466;28;19924;-69
2023/04/14 09:38:43;;;;;;;;;;;20.10;42.20;;;;;;5070778;28;20710;-69
2023/04/14 09:41:14;;;;;;;;;;;20.10;42.40;;;;;;5072155;28;19932;-70
2023/04/14 09:43:40;;;;;;;;;;;20.10;42.60;;;;;;5071493;28;20386;-69
2023/04/14 09:46:07;;;;;;;;;;;20.00;42.70;;;;;;5070201;28;19931;-66
2023/04/14 09:48:33;;;;;;;;;;;20.00;43.60;;;;;;5069964;28;20625;-69
2023/04/14 09:51:08;;;;;;;;;;;20.00;43.50;;;;;;5068633;28;20015;-66
2023/04/14 09:53:35;;;;;;;;;;;19.90;43.60;;;;;;5073978;28;20023;-67
2023/04/14 09:56:03;;;;;;;;;;;19.90;44.00;;;;;;5075257;28;19975;-67
2023/04/14 09:58:30;;;;;;;;;;;19.90;44.20;;;;;;5067543;28;19928;-66
2023/04/14 10:00:56;;;;;;;;;;;19.90;44.20;;;;;;5072373;28;20023;-67
2023/04/14 10:03:37;;;;;;;;;;;19.90;44.10;;;;;;5073888;28;20023;-67
2023/04/14 10:06:19;;;;;;;;;;;19.90;44.80;;;;;;5069474;28;20330;-67
2023/04/14 10:08:45;;;;;;;;;;;19.90;44.80;;;;;;5078289;28;19928;-69
2023/04/14 10:11:13;;;;;;;;;;;19.90;45.50;;;;;;5069845;28;19964;-69
2023/04/14 10:13:39;;;;;;;;;;;19.90;45.10;;;;;;5072407;28;20449;-66
2023/04/14 10:16:05;;;;;;;;;;;19.80;45.40;;;;;;5071883;28;19963;-66
2023/04/14 10:18:30;;;;;;;;;;;19.80;45.50;;;;;;5072618;28;19931;-64
2023/04/14 10:20:56;;;;;;;;;;;19.80;45.40;;;;;;5076082;28;19928;-66
2023/04/14 10:23:22;;;;;;;;;;;19.70;45.50;;;;;;5107837;27;20391;-67
2023/04/14 10:25:49;;;;;;;;;;;19.70;45.40;;;;;;5105988;27;20333;-67
2023/04/14 10:28:14;;;;;;;;;;;19.70;45.50;;;;;;5073390;28;19928;-67
2023/04/14 10:30:42;;;;;;;;;;;19.60;45.50;;;;;;5074575;28;19925;-67
2023/04/14 10:33:08;;;;;;;;;;;19.60;45.40;;;;;;5078787;28;20183;-67
2023/04/14 10:35:38;;;;;;;;;;;19.50;45.30;;;;;;5076570;28;20296;-70
2023/04/14 10:38:04;;;;;;;;;;;19.50;45.10;;;;;;5071778;28;19931;-67
2023/04/14 10:40:44;;;;;;;;;;;19.50;45.00;;;;;;5074067;28;19924;-68
2023/04/14 10:43:10;;;;;;;;;;;19.40;44.80;;;;;;5101414;27;20383;-67
2023/04/14 10:45:51;;;;;;;;;;;19.40;44.70;;;;;;5063805;28;19928;-67
2023/04/14 10:48:17;;;;;;;;;;;19.40;44.70;;;;;;5065530;28;20077;-70
2023/04/14 10:50:47;;;;;;;;;;;19.40;44.60;;;;;;5068568;28;20028;-69
2023/04/14 10:53:13;;;;;;;;;;;19.40;44.50;;;;;;5074091;28;20658;-69
2023/04/14 10:55:45;;;;;;;;;;;19.40;44.60;;;;;;5067839;28;20035;-69
2023/04/14 10:58:19;;;;;;;;;;;19.40;44.90;;;;;;5070030;28;19924;-69
2023/04/14 11:00:45;;;;;;;;;;;19.40;45.20;;;;;;5073689;28;20408;-68
2023/04/14 11:03:11;;;;;;;;;;;19.40;45.10;;;;;;5069536;28;19931;-67
2023/04/14 11:05:49;;;;;;;;;;;19.40;46.00;;;;;;5068507;28;19932;-68
2023/04/14 11:08:16;;;;;;;;;;;19.50;45.30;;;;;;5067364;28;20696;-68
2023/04/14 11:10:49;;;;;;;;;;;19.40;45.30;;;;;;5101040;27;19930;-66
2023/04/14 11:13:15;;;;;;;;;;;19.40;45.40;;;;;;5070571;28;19948;-67
2023/04/14 11:21:09;;;;;;;;;;;19.50;45.90;;;;;;5086680;27;19943;-68
2023/04/14 11:23:35;;;;;;;;;;;19.60;46.00;;;;;;5117969;27;19920;-68
2023/04/14 11:26:03;;;;;;;;;;;19.60;46.10;;;;;;5082692;28;19927;-68
2023/04/14 11:28:29;;;;;;;;;;;19.60;46.10;;;;;;5082331;28;20235;-67
2023/04/14 11:30:57;;;;;;;;;;;19.50;45.90;;;;;;5082221;28;19920;-68
2023/04/14 11:33:25;;;;;;;;;;;19.60;45.80;;;;;;5087138;28;19924;-67
2023/04/14 11:35:52;;;;;;;;;;;19.50;45.70;;;;;;5081987;28;19932;-67
2023/04/14 11:38:17;;;;;;;;;;;19.50;45.70;;;;;;5115368;27;20333;-68
2023/04/14 11:40:47;;;;;;;;;;;19.50;45.80;;;;;;5086926;28;19932;-67
2023/04/14 11:43:13;;;;;;;;;;;19.50;45.80;;;;;;5084296;28;19994;-72
2023/04/14 11:45:41;;;;;;;;;;;19.40;45.80;;;;;;5086841;28;20018;-67
2023/04/14 11:48:08;;;;;;;;;;;19.40;45.90;;;;;;5116756;27;19928;-67
2023/04/14 11:50:37;;;;;;;;;;;19.40;45.90;;;;;;5089176;28;20015;-65
2023/04/14 11:53:18;;;;;;;;;;;19.40;46.00;;;;;;5088767;28;20051;-67
2023/04/14 11:55:45;;;;;;;;;;;19.40;46.20;;;;;;5089426;28;19982;-69
2023/04/14 11:58:11;;;;;;;;;;;19.40;46.00;;;;;;5088769;28;19984;-67
2023/04/14 12:00:37;;;;;;;;;;;19.40;46.10;;;;;;5086299;28;19928;-68
2023/04/14 12:03:03;;;;;;;;;;;19.40;46.20;;;;;;5085918;28;19966;-66
2023/04/14 12:05:30;;;;;;;;;;;19.40;46.10;;;;;;5087172;28;19981;-66
2023/04/14 12:07:57;;;;;;;;;;;19.40;46.10;;;;;;5087261;28;19924;-70
2023/04/14 12:10:23;;;;;;;;;;;19.40;46.10;;;;;;5087297;28;20328;-68
2023/04/14 12:12:49;;;;;;;;;;;19.50;46.00;;;;;;5087223;28;19939;-66
2023/04/14 12:15:14;;;;;;;;;;;19.60;46.00;;;;;;5086759;28;20365;-66
2023/04/14 12:17:40;;;;;;;;;;;19.70;45.70;;;;;;5087153;28;19920;-69
2023/04/14 12:20:13;;;;;;;;;;;19.80;45.40;;;;;;5117045;27;20260;-66
2023/04/14 12:22:38;;;;;;;;;;;19.90;45.10;;;;;;5082833;28;19970;-67
2023/04/14 12:25:09;;;;;;;;;;;20.00;45.00;;;;;;5085929;28;19924;-67
2023/04/14 12:27:35;;;;;;;;;;;20.10;45.00;;;;;;5117699;27;19920;-66
2023/04/14 12:30:01;;;;;;;;;;;20.20;44.80;;;;;;5087827;28;19924;-67
2023/04/14 12:32:29;;;;;;;;;;;20.30;44.60;;;;;;5075223;28;19970;-69
2023/04/14 12:34:57;;;;;;;;;;;20.50;44.40;;;;;;5076522;28;20210;-69
2023/04/14 12:37:25;;;;;;;;;;;20.60;44.20;;;;;;5079358;28;20011;-68
2023/04/14 12:39:51;;;;;;;;;;;20.60;44.30;;;;;;5073261;28;20375;-69
2023/04/14 12:42:17;;;;;;;;;;;20.70;44.00;;;;;;5071643;28;20002;-67
2023/04/14 12:45:01;;;;;;;;;;;20.70;44.00;;;;;;5075783;28;19931;-68
2023/04/14 12:50:27;;;;;;;;;;;20.80;43.80;;;;;;5067599;28;19917;-69
2023/04/14 12:52:53;;;;;;;;;;;20.80;43.80;;;;;;5050603;28;19987;-67
2023/04/14 12:55:19;;;;;;;;;;;20.80;43.80;;;;;;5064104;28;19964;-70
2023/04/14 12:57:45;;;;;;;;;;;20.90;43.90;;;;;;5050198;28;20350;-68
2023/04/14 13:00:11;;;;;;;;;;;20.90;43.90;;;;;;5047447;28;20035;-67
2023/04/14 13:02:36;;;;;;;;;;;21.00;43.30;;;;;;5052479;28;19968;-65
2023/04/14 13:05:03;;;;;;;;;;;21.00;42.70;;;;;;5054072;28;19927;-66
2023/04/14 13:07:29;;;;;;;;;;;21.00;40.90;;;;;;5057616;28;19927;-66
2023/04/14 13:09:55;;;;;;;;;;;20.90;41.70;;;;;;5051137;28;19937;-66
2023/04/14 13:12:21;;;;;;;;;;;20.90;41.10;;;;;;5051220;28;19925;-65
2023/04/14 13:14:46;;;;;;;;;;;20.80;40.80;;;;;;5052636;28;19921;-66
2023/04/14 13:17:12;;;;;;;;;;;20.80;41.20;;;;;;5050839;28;19928;-67
2023/04/14 13:19:37;;;;;;;;;;;20.80;41.40;;;;;;5051211;28;19920;-66
2023/04/14 13:22:03;;;;;;;;;;;20.70;41.40;;;;;;5053873;28;20376;-70
2023/04/14 13:24:28;;;;;;;;;;;20.80;41.40;;;;;;5051626;28;20000;-68
2023/04/14 13:26:54;;;;;;;;;;;20.70;41.30;;;;;;5068987;28;19920;-67
2023/04/14 13:29:20;;;;;;;;;;;20.70;41.30;;;;;;5054608;28;19936;-67
2023/04/14 13:31:45;;;;;;;;;;;20.70;41.10;;;;;;5051648;28;19931;-68
2023/04/14 13:34:11;;;;;;;;;;;20.70;41.00;;;;;;5052868;28;19954;-68
2023/04/14 13:36:36;;;;;;;;;;;20.80;40.60;;;;;;5067382;28;19987;-67
2023/04/14 13:39:03;;;;;;;;;;;20.80;40.40;;;;;;5049906;28;19971;-68
2023/04/14 13:41:28;;;;;;;;;;;20.80;40.40;;;;;;5054763;28;19921;-68
2023/04/14 13:43:54;;;;;;;;;;;20.80;40.20;;;;;;5051140;28;19925;-67
2023/04/14 13:46:20;;;;;;;;;;;20.70;40.10;;;;;;5057714;28;19925;-68
2023/04/14 13:48:46;;;;;;;;;;;20.70;40.40;;;;;;5063042;28;20536;-67
2023/04/14 13:51:11;;;;;;;;;;;20.70;40.20;;;;;;5062926;28;19921;-68
2023/04/14 13:53:37;;;;;;;;;;;20.70;40.40;;;;;;5055297;28;19920;-67
2023/04/14 13:56:03;;;;;;;;;;;20.70;40.30;;;;;;5058414;28;20566;-67
2023/04/14 13:58:28;;;;;;;;;;;20.60;40.30;;;;;;5073510;28;19924;-68
2023/04/14 14:00:55;;;;;;;;;;;20.60;40.30;;;;;;5053437;28;19931;-67
2023/04/14 14:03:20;;;;;;;;;;;20.60;39.90;;;;;;5068626;28;19924;-68
2023/04/14 14:05:46;;;;;;;;;;;20.70;40.10;;;;;;5047220;28;19932;-68
2023/04/14 14:08:12;;;;;;;;;;;20.60;39.80;;;;;;5067438;28;19924;-68
2023/04/14 14:10:38;;;;;;;;;;;20.60;40.10;;;;;;5049820;28;19951;-68
2023/04/14 14:13:03;;;;;;;;;;;20.60;40.00;;;;;;5047648;28;20306;-66
2023/04/14 14:15:29;;;;;;;;;;;20.50;40.30;;;;;;5067381;28;19994;-66
2023/04/14 14:17:54;;;;;;;;;;;20.50;40.00;;;;;;5035226;28;19921;-68
2023/04/14 14:20:20;;;;;;;;;;;20.50;40.10;;;;;;5051847;28;19946;-71
2023/04/14 14:22:45;;;;;;;;;;;20.60;39.90;;;;;;5052262;28;20003;-70
2023/04/14 14:25:11;;;;;;;;;;;20.50;40.00;;;;;;5069306;28;20136;-67